sensor_id;sensor_type;location;lat;lon;timestamp;P1;durP1;ratioP1;P2;durP2;ratioP2
33266;SDS011;19638;49.080;11.896;2023-07-24T00:00:20;15.48;;;6.35;;
33266;SDS011;19638;49.080;11.896;2023-07-24T00:04:24;11.05;;;6.38;;
33266;SDS011;19638;49.080;11.896;2023-07-24T00:08:32;11.65;;;6.55;;
33266;SDS011;19638;49.080;11.896;2023-07-24T00:12:38;15.93;;;6.65;;
33266;SDS011;19638;49.080;11.896;2023-07-24T00:16:42;13.13;;;7.22;;
33266;SDS011;19638;49.080;11.896;2023-07-24T00:20:48;11.85;;;6.15;;
33266;SDS011;19638;49.080;11.896;2023-07-24T00:24:52;13.95;;;6.20;;
33266;SDS011;19638;49.080;11.896;2023-07-24T00:28:55;13.77;;;6.68;;
33266;SDS011;19638;49.080;11.896;2023-07-24T00:33:05;12.77;;;6.72;;
33266;SDS011;19638;49.080;11.896;2023-07-24T00:37:10;10.40;;;6.15;;
33266;SDS011;19638;49.080;11.896;2023-07-24T00:41:16;13.10;;;7.13;;
33266;SDS011;19638;49.080;11.896;2023-07-24T00:45:20;12.55;;;6.85;;
33266;SDS011;19638;49.080;11.896;2023-07-24T00:49:26;13.77;;;6.72;;
33266;SDS011;19638;49.080;11.896;2023-07-24T00:53:30;17.98;;;7.07;;
33266;SDS011;19638;49.080;11.896;2023-07-24T00:57:34;10.95;;;6.75;;
33266;SDS011;19638;49.080;11.896;2023-07-24T01:01:37;15.13;;;7.38;;
33266;SDS011;19638;49.080;11.896;2023-07-24T01:05:44;12.93;;;7.20;;
33266;SDS011;19638;49.080;11.896;2023-07-24T01:09:48;14.48;;;6.80;;
33266;SDS011;19638;49.080;11.896;2023-07-24T01:13:55;13.50;;;6.85;;
33266;SDS011;19638;49.080;11.896;2023-07-24T01:18:06;13.45;;;6.90;;
33266;SDS011;19638;49.080;11.896;2023-07-24T01:22:12;14.80;;;6.43;;
33266;SDS011;19638;49.080;11.896;2023-07-24T01:26:24;12.80;;;7.03;;
33266;SDS011;19638;49.080;11.896;2023-07-24T01:30:29;15.43;;;6.47;;
33266;SDS011;19638;49.080;11.896;2023-07-24T01:34:38;12.30;;;6.95;;
33266;SDS011;19638;49.080;11.896;2023-07-24T01:38:48;10.63;;;6.18;;
33266;SDS011;19638;49.080;11.896;2023-07-24T01:42:54;13.38;;;7.32;;
33266;SDS011;19638;49.080;11.896;2023-07-24T01:46:57;13.35;;;6.47;;
33266;SDS011;19638;49.080;11.896;2023-07-24T01:51:03;11.15;;;6.75;;
33266;SDS011;19638;49.080;11.896;2023-07-24T01:55:06;12.00;;;7.00;;
33266;SDS011;19638;49.080;11.896;2023-07-24T01:59:15;11.85;;;6.28;;
33266;SDS011;19638;49.080;11.896;2023-07-24T02:03:18;8.98;;;5.97;;
33266;SDS011;19638;49.080;11.896;2023-07-24T02:07:21;9.68;;;5.70;;
33266;SDS011;19638;49.080;11.896;2023-07-24T02:11:26;10.45;;;6.13;;
33266;SDS011;19638;49.080;11.896;2023-07-24T02:15:33;11.43;;;5.97;;
33266;SDS011;19638;49.080;11.896;2023-07-24T02:19:36;11.05;;;6.57;;
33266;SDS011;19638;49.080;11.896;2023-07-24T02:23:40;12.48;;;6.97;;
33266;SDS011;19638;49.080;11.896;2023-07-24T02:27:43;12.80;;;6.72;;
33266;SDS011;19638;49.080;11.896;2023-07-24T02:31:56;13.75;;;6.38;;
33266;SDS011;19638;49.080;11.896;2023-07-24T02:36:03;12.05;;;6.55;;
33266;SDS011;19638;49.080;11.896;2023-07-24T02:40:09;13.02;;;6.88;;
33266;SDS011;19638;49.080;11.896;2023-07-24T02:44:13;12.35;;;6.50;;
33266;SDS011;19638;49.080;11.896;2023-07-24T02:48:19;10.05;;;5.57;;
33266;SDS011;19638;49.080;11.896;2023-07-24T02:52:22;13.80;;;7.07;;
33266;SDS011;19638;49.080;11.896;2023-07-24T02:56:26;13.98;;;6.78;;
33266;SDS011;19638;49.080;11.896;2023-07-24T03:00:32;11.63;;;6.13;;
33266;SDS011;19638;49.080;11.896;2023-07-24T03:09:31;11.93;;;6.57;;
33266;SDS011;19638;49.080;11.896;2023-07-24T03:13:50;13.18;;;6.80;;
33266;SDS011;19638;49.080;11.896;2023-07-24T03:18:05;12.63;;;7.00;;
33266;SDS011;19638;49.080;11.896;2023-07-24T03:23:18;13.13;;;6.72;;
33266;SDS011;19638;49.080;11.896;2023-07-24T03:27:44;11.95;;;6.53;;
33266;SDS011;19638;49.080;11.896;2023-07-24T03:37:16;14.40;;;7.63;;
33266;SDS011;19638;49.080;11.896;2023-07-24T03:41:25;12.10;;;6.85;;
33266;SDS011;19638;49.080;11.896;2023-07-24T03:45:30;11.98;;;6.80;;
33266;SDS011;19638;49.080;11.896;2023-07-24T03:49:34;12.73;;;6.75;;
33266;SDS011;19638;49.080;11.896;2023-07-24T03:53:38;11.57;;;6.68;;
33266;SDS011;19638;49.080;11.896;2023-07-24T03:57:50;20.05;;;6.85;;
33266;SDS011;19638;49.080;11.896;2023-07-24T04:01:53;11.63;;;6.30;;
33266;SDS011;19638;49.080;11.896;2023-07-24T04:05:56;11.68;;;6.65;;
33266;SDS011;19638;49.080;11.896;2023-07-24T04:09:59;13.80;;;7.40;;
33266;SDS011;19638;49.080;11.896;2023-07-24T04:14:13;14.50;;;6.82;;
33266;SDS011;19638;49.080;11.896;2023-07-24T04:18:18;15.57;;;7.18;;
33266;SDS011;19638;49.080;11.896;2023-07-24T04:22:21;12.68;;;6.93;;
33266;SDS011;19638;49.080;11.896;2023-07-24T04:26:30;13.55;;;7.20;;
33266;SDS011;19638;49.080;11.896;2023-07-24T04:30:36;14.57;;;6.85;;
33266;SDS011;19638;49.080;11.896;2023-07-24T04:34:44;14.13;;;7.22;;
33266;SDS011;19638;49.080;11.896;2023-07-24T04:38:51;17.02;;;7.70;;
33266;SDS011;19638;49.080;11.896;2023-07-24T04:42:57;12.05;;;7.00;;
33266;SDS011;19638;49.080;11.896;2023-07-24T04:47:04;12.52;;;7.25;;
33266;SDS011;19638;49.080;11.896;2023-07-24T04:51:09;14.80;;;7.10;;
33266;SDS011;19638;49.080;11.896;2023-07-24T04:55:12;12.43;;;7.25;;
33266;SDS011;19638;49.080;11.896;2023-07-24T04:59:15;11.70;;;6.78;;
33266;SDS011;19638;49.080;11.896;2023-07-24T05:03:21;13.40;;;6.97;;
33266;SDS011;19638;49.080;11.896;2023-07-24T05:07:26;13.52;;;6.97;;
33266;SDS011;19638;49.080;11.896;2023-07-24T05:11:30;14.40;;;7.45;;
33266;SDS011;19638;49.080;11.896;2023-07-24T05:15:35;12.50;;;7.00;;
33266;SDS011;19638;49.080;11.896;2023-07-24T05:19:44;13.05;;;7.00;;
33266;SDS011;19638;49.080;11.896;2023-07-24T05:23:49;11.30;;;6.80;;
33266;SDS011;19638;49.080;11.896;2023-07-24T05:27:53;12.98;;;6.70;;
33266;SDS011;19638;49.080;11.896;2023-07-24T05:31:56;13.77;;;7.32;;
33266;SDS011;19638;49.080;11.896;2023-07-24T05:36:08;13.15;;;6.60;;
33266;SDS011;19638;49.080;11.896;2023-07-24T05:40:12;14.48;;;7.50;;
33266;SDS011;19638;49.080;11.896;2023-07-24T05:44:18;13.32;;;7.28;;
33266;SDS011;19638;49.080;11.896;2023-07-24T05:48:22;14.30;;;7.28;;
33266;SDS011;19638;49.080;11.896;2023-07-24T05:52:28;14.43;;;6.72;;
33266;SDS011;19638;49.080;11.896;2023-07-24T05:56:32;16.45;;;7.25;;
33266;SDS011;19638;49.080;11.896;2023-07-24T06:00:35;13.88;;;7.45;;
33266;SDS011;19638;49.080;11.896;2023-07-24T06:04:39;17.85;;;7.75;;
33266;SDS011;19638;49.080;11.896;2023-07-24T06:08:46;11.00;;;7.28;;
33266;SDS011;19638;49.080;11.896;2023-07-24T06:12:56;16.20;;;7.45;;
33266;SDS011;19638;49.080;11.896;2023-07-24T06:17:00;13.90;;;7.65;;
33266;SDS011;19638;49.080;11.896;2023-07-24T06:21:03;15.40;;;7.90;;
33266;SDS011;19638;49.080;11.896;2023-07-24T06:25:08;13.27;;;7.70;;
33266;SDS011;19638;49.080;11.896;2023-07-24T06:29:13;14.95;;;7.18;;
33266;SDS011;19638;49.080;11.896;2023-07-24T06:33:16;12.02;;;7.38;;
33266;SDS011;19638;49.080;11.896;2023-07-24T06:37:20;13.57;;;7.75;;
33266;SDS011;19638;49.080;11.896;2023-07-24T06:41:25;11.00;;;6.85;;
33266;SDS011;19638;49.080;11.896;2023-07-24T06:45:28;13.77;;;7.53;;
33266;SDS011;19638;49.080;11.896;2023-07-24T06:49:31;12.43;;;7.53;;
33266;SDS011;19638;49.080;11.896;2023-07-24T06:53:34;11.43;;;7.28;;
33266;SDS011;19638;49.080;11.896;2023-07-24T06:57:39;13.18;;;7.75;;
33266;SDS011;19638;49.080;11.896;2023-07-24T07:01:42;12.75;;;7.47;;
33266;SDS011;19638;49.080;11.896;2023-07-24T07:05:45;12.27;;;7.63;;
33266;SDS011;19638;49.080;11.896;2023-07-24T07:09:53;11.25;;;7.50;;
33266;SDS011;19638;49.080;11.896;2023-07-24T07:14:01;14.40;;;7.78;;
33266;SDS011;19638;49.080;11.896;2023-07-24T07:18:04;14.18;;;7.75;;
33266;SDS011;19638;49.080;11.896;2023-07-24T07:22:10;11.60;;;7.43;;
33266;SDS011;19638;49.080;11.896;2023-07-24T07:26:17;10.48;;;6.95;;
33266;SDS011;19638;49.080;11.896;2023-07-24T07:30:25;13.50;;;8.05;;
33266;SDS011;19638;49.080;11.896;2023-07-24T07:34:30;16.75;;;7.65;;
33266;SDS011;19638;49.080;11.896;2023-07-24T07:38:38;11.20;;;7.32;;
33266;SDS011;19638;49.080;11.896;2023-07-24T07:42:42;12.80;;;7.55;;
33266;SDS011;19638;49.080;11.896;2023-07-24T07:46:47;13.75;;;7.57;;
33266;SDS011;19638;49.080;11.896;2023-07-24T07:50:51;14.63;;;7.28;;
33266;SDS011;19638;49.080;11.896;2023-07-24T07:54:55;13.13;;;6.88;;
33266;SDS011;19638;49.080;11.896;2023-07-24T07:59:01;15.80;;;7.13;;
33266;SDS011;19638;49.080;11.896;2023-07-24T08:03:09;13.18;;;7.30;;
33266;SDS011;19638;49.080;11.896;2023-07-24T08:07:12;12.85;;;8.07;;
33266;SDS011;19638;49.080;11.896;2023-07-24T08:11:15;19.30;;;9.63;;
33266;SDS011;19638;49.080;11.896;2023-07-24T08:15:18;15.88;;;8.25;;
33266;SDS011;19638;49.080;11.896;2023-07-24T08:19:23;18.55;;;8.30;;
33266;SDS011;19638;49.080;11.896;2023-07-24T08:23:26;13.68;;;7.75;;
33266;SDS011;19638;49.080;11.896;2023-07-24T08:27:29;16.73;;;8.85;;
33266;SDS011;19638;49.080;11.896;2023-07-24T08:31:36;14.75;;;7.88;;
33266;SDS011;19638;49.080;11.896;2023-07-24T08:35:45;16.35;;;8.98;;
33266;SDS011;19638;49.080;11.896;2023-07-24T08:39:51;18.08;;;7.47;;
33266;SDS011;19638;49.080;11.896;2023-07-24T08:44:00;13.98;;;8.32;;
33266;SDS011;19638;49.080;11.896;2023-07-24T08:48:04;15.52;;;8.15;;
33266;SDS011;19638;49.080;11.896;2023-07-24T08:52:15;14.27;;;7.65;;
33266;SDS011;19638;49.080;11.896;2023-07-24T08:56:37;16.02;;;7.18;;
33266;SDS011;19638;49.080;11.896;2023-07-24T09:00:44;17.52;;;7.20;;
33266;SDS011;19638;49.080;11.896;2023-07-24T09:04:52;18.42;;;8.25;;
33266;SDS011;19638;49.080;11.896;2023-07-24T09:08:59;14.13;;;7.43;;
33266;SDS011;19638;49.080;11.896;2023-07-24T09:13:02;13.20;;;7.70;;
33266;SDS011;19638;49.080;11.896;2023-07-24T09:17:09;13.07;;;7.90;;
33266;SDS011;19638;49.080;11.896;2023-07-24T09:21:13;12.98;;;7.43;;
33266;SDS011;19638;49.080;11.896;2023-07-24T09:25:17;14.93;;;7.57;;
33266;SDS011;19638;49.080;11.896;2023-07-24T09:29:30;14.85;;;7.35;;
33266;SDS011;19638;49.080;11.896;2023-07-24T09:33:38;12.05;;;6.70;;
33266;SDS011;19638;49.080;11.896;2023-07-24T09:37:42;10.88;;;6.55;;
33266;SDS011;19638;49.080;11.896;2023-07-24T09:41:52;12.88;;;6.90;;
33266;SDS011;19638;49.080;11.896;2023-07-24T09:46:00;12.60;;;6.32;;
33266;SDS011;19638;49.080;11.896;2023-07-24T09:50:04;14.45;;;7.43;;
33266;SDS011;19638;49.080;11.896;2023-07-24T09:54:10;12.13;;;6.65;;
33266;SDS011;19638;49.080;11.896;2023-07-24T09:58:23;9.82;;;6.32;;
33266;SDS011;19638;49.080;11.896;2023-07-24T10:02:31;8.48;;;5.53;;
33266;SDS011;19638;49.080;11.896;2023-07-24T10:06:34;9.05;;;5.82;;
33266;SDS011;19638;49.080;11.896;2023-07-24T10:10:38;7.22;;;5.25;;
33266;SDS011;19638;49.080;11.896;2023-07-24T10:14:45;8.48;;;5.30;;
33266;SDS011;19638;49.080;11.896;2023-07-24T10:18:50;8.32;;;5.47;;
33266;SDS011;19638;49.080;11.896;2023-07-24T10:22:53;9.88;;;5.43;;
33266;SDS011;19638;49.080;11.896;2023-07-24T10:26:56;8.20;;;5.60;;
33266;SDS011;19638;49.080;11.896;2023-07-24T10:31:01;6.85;;;4.78;;
33266;SDS011;19638;49.080;11.896;2023-07-24T10:35:11;6.32;;;4.75;;
33266;SDS011;19638;49.080;11.896;2023-07-24T10:39:16;6.30;;;4.78;;
33266;SDS011;19638;49.080;11.896;2023-07-24T10:43:22;11.23;;;5.53;;
33266;SDS011;19638;49.080;11.896;2023-07-24T10:47:30;7.53;;;4.90;;
33266;SDS011;19638;49.080;11.896;2023-07-24T10:51:44;8.20;;;4.68;;
33266;SDS011;19638;49.080;11.896;2023-07-24T10:55:49;8.90;;;5.43;;
33266;SDS011;19638;49.080;11.896;2023-07-24T10:59:53;9.27;;;5.18;;
33266;SDS011;19638;49.080;11.896;2023-07-24T11:03:58;8.15;;;5.75;;
33266;SDS011;19638;49.080;11.896;2023-07-24T11:08:07;9.00;;;5.38;;
33266;SDS011;19638;49.080;11.896;2023-07-24T11:12:16;9.90;;;6.10;;
33266;SDS011;19638;49.080;11.896;2023-07-24T11:16:19;10.73;;;5.72;;
33266;SDS011;19638;49.080;11.896;2023-07-24T11:20:24;7.70;;;5.55;;
33266;SDS011;19638;49.080;11.896;2023-07-24T11:24:30;10.68;;;5.90;;
33266;SDS011;19638;49.080;11.896;2023-07-24T11:28:38;8.80;;;5.72;;
33266;SDS011;19638;49.080;11.896;2023-07-24T11:32:42;8.85;;;5.28;;
33266;SDS011;19638;49.080;11.896;2023-07-24T11:36:48;8.43;;;5.30;;
33266;SDS011;19638;49.080;11.896;2023-07-24T11:40:53;9.10;;;4.97;;
33266;SDS011;19638;49.080;11.896;2023-07-24T11:45:00;13.15;;;5.00;;
33266;SDS011;19638;49.080;11.896;2023-07-24T11:49:04;7.60;;;5.57;;
33266;SDS011;19638;49.080;11.896;2023-07-24T11:53:19;9.35;;;5.57;;
33266;SDS011;19638;49.080;11.896;2023-07-24T11:57:24;6.20;;;4.88;;
33266;SDS011;19638;49.080;11.896;2023-07-24T12:01:32;13.40;;;5.72;;
33266;SDS011;19638;49.080;11.896;2023-07-24T12:05:40;8.23;;;5.35;;
33266;SDS011;19638;49.080;11.896;2023-07-24T12:09:51;8.10;;;5.82;;
33266;SDS011;19638;49.080;11.896;2023-07-24T12:13:56;15.00;;;5.93;;
33266;SDS011;19638;49.080;11.896;2023-07-24T12:18:00;24.77;;;8.38;;
33266;SDS011;19638;49.080;11.896;2023-07-24T12:22:05;14.30;;;9.30;;
33266;SDS011;19638;49.080;11.896;2023-07-24T12:26:12;19.77;;;8.70;;
33266;SDS011;19638;49.080;11.896;2023-07-24T12:30:16;16.70;;;9.45;;
33266;SDS011;19638;49.080;11.896;2023-07-24T12:34:23;17.70;;;9.00;;
33266;SDS011;19638;49.080;11.896;2023-07-24T12:38:27;15.95;;;9.40;;
33266;SDS011;19638;49.080;11.896;2023-07-24T12:42:33;22.05;;;10.25;;
33266;SDS011;19638;49.080;11.896;2023-07-24T12:46:37;15.10;;;8.38;;
33266;SDS011;19638;49.080;11.896;2023-07-24T12:50:40;12.95;;;7.43;;
33266;SDS011;19638;49.080;11.896;2023-07-24T12:54:43;10.07;;;6.22;;
33266;SDS011;19638;49.080;11.896;2023-07-24T12:59:03;13.18;;;7.40;;
33266;SDS011;19638;49.080;11.896;2023-07-24T13:03:08;10.50;;;5.88;;
33266;SDS011;19638;49.080;11.896;2023-07-24T13:07:13;10.85;;;6.22;;
33266;SDS011;19638;49.080;11.896;2023-07-24T13:11:16;12.63;;;6.43;;
33266;SDS011;19638;49.080;11.896;2023-07-24T13:15:25;12.38;;;6.43;;
33266;SDS011;19638;49.080;11.896;2023-07-24T13:19:33;11.60;;;6.43;;
33266;SDS011;19638;49.080;11.896;2023-07-24T13:23:37;11.60;;;5.82;;
33266;SDS011;19638;49.080;11.896;2023-07-24T13:27:43;8.60;;;5.68;;
33266;SDS011;19638;49.080;11.896;2023-07-24T13:31:51;9.52;;;6.03;;
33266;SDS011;19638;49.080;11.896;2023-07-24T13:35:54;11.45;;;6.10;;
33266;SDS011;19638;49.080;11.896;2023-07-24T13:39:58;9.88;;;6.35;;
33266;SDS011;19638;49.080;11.896;2023-07-24T13:44:01;12.63;;;5.75;;
33266;SDS011;19638;49.080;11.896;2023-07-24T13:48:08;8.05;;;5.80;;
33266;SDS011;19638;49.080;11.896;2023-07-24T13:52:18;10.73;;;5.63;;
33266;SDS011;19638;49.080;11.896;2023-07-24T13:56:26;8.57;;;5.80;;
33266;SDS011;19638;49.080;11.896;2023-07-24T14:00:31;8.43;;;5.38;;
33266;SDS011;19638;49.080;11.896;2023-07-24T14:04:36;9.25;;;5.18;;
33266;SDS011;19638;49.080;11.896;2023-07-24T14:08:39;9.40;;;5.72;;
33266;SDS011;19638;49.080;11.896;2023-07-24T14:12:42;11.23;;;5.75;;
33266;SDS011;19638;49.080;11.896;2023-07-24T14:16:46;7.65;;;4.78;;
33266;SDS011;19638;49.080;11.896;2023-07-24T14:20:54;7.60;;;5.35;;
33266;SDS011;19638;49.080;11.896;2023-07-24T14:24:58;9.25;;;5.13;;
33266;SDS011;19638;49.080;11.896;2023-07-24T14:29:01;9.48;;;5.18;;
33266;SDS011;19638;49.080;11.896;2023-07-24T14:33:05;9.18;;;5.50;;
33266;SDS011;19638;49.080;11.896;2023-07-24T14:37:12;9.25;;;5.32;;
33266;SDS011;19638;49.080;11.896;2023-07-24T14:41:15;26.02;;;5.72;;
33266;SDS011;19638;49.080;11.896;2023-07-24T14:45:18;9.00;;;5.18;;
33266;SDS011;19638;49.080;11.896;2023-07-24T14:49:22;7.15;;;4.40;;
33266;SDS011;19638;49.080;11.896;2023-07-24T14:53:26;6.55;;;4.30;;
33266;SDS011;19638;49.080;11.896;2023-07-24T14:57:32;6.57;;;4.75;;
33266;SDS011;19638;49.080;11.896;2023-07-24T15:01:38;8.80;;;4.47;;
33266;SDS011;19638;49.080;11.896;2023-07-24T15:05:41;5.95;;;4.80;;
33266;SDS011;19638;49.080;11.896;2023-07-24T15:09:46;6.13;;;4.32;;
33266;SDS011;19638;49.080;11.896;2023-07-24T15:13:49;7.88;;;5.10;;
33266;SDS011;19638;49.080;11.896;2023-07-24T15:17:52;7.57;;;4.63;;
33266;SDS011;19638;49.080;11.896;2023-07-24T15:21:58;8.35;;;4.65;;
33266;SDS011;19638;49.080;11.896;2023-07-24T15:26:07;9.55;;;5.28;;
33266;SDS011;19638;49.080;11.896;2023-07-24T15:30:10;7.93;;;5.07;;
33266;SDS011;19638;49.080;11.896;2023-07-24T15:34:15;9.43;;;5.43;;
33266;SDS011;19638;49.080;11.896;2023-07-24T15:38:19;9.10;;;6.30;;
33266;SDS011;19638;49.080;11.896;2023-07-24T15:42:28;9.13;;;6.10;;
33266;SDS011;19638;49.080;11.896;2023-07-24T15:46:31;9.60;;;6.32;;
33266;SDS011;19638;49.080;11.896;2023-07-24T15:50:35;11.32;;;5.88;;
33266;SDS011;19638;49.080;11.896;2023-07-24T15:54:38;11.32;;;6.22;;
33266;SDS011;19638;49.080;11.896;2023-07-24T15:58:44;11.02;;;6.50;;
33266;SDS011;19638;49.080;11.896;2023-07-24T16:02:49;11.60;;;6.20;;
33266;SDS011;19638;49.080;11.896;2023-07-24T16:06:55;10.93;;;5.63;;
33266;SDS011;19638;49.080;11.896;2023-07-24T16:10:58;8.52;;;4.85;;
33266;SDS011;19638;49.080;11.896;2023-07-24T16:15:03;7.38;;;4.65;;
33266;SDS011;19638;49.080;11.896;2023-07-24T16:19:10;6.95;;;4.60;;
33266;SDS011;19638;49.080;11.896;2023-07-24T16:23:20;8.75;;;4.88;;
33266;SDS011;19638;49.080;11.896;2023-07-24T16:27:26;7.00;;;4.50;;
33266;SDS011;19638;49.080;11.896;2023-07-24T16:31:33;9.15;;;5.03;;
33266;SDS011;19638;49.080;11.896;2023-07-24T16:35:38;5.90;;;4.43;;
33266;SDS011;19638;49.080;11.896;2023-07-24T16:39:42;7.22;;;4.28;;
33266;SDS011;19638;49.080;11.896;2023-07-24T16:43:46;6.03;;;4.20;;
33266;SDS011;19638;49.080;11.896;2023-07-24T16:47:50;6.22;;;4.18;;
33266;SDS011;19638;49.080;11.896;2023-07-24T16:51:54;5.45;;;3.92;;
33266;SDS011;19638;49.080;11.896;2023-07-24T16:55:58;5.25;;;3.90;;
33266;SDS011;19638;49.080;11.896;2023-07-24T17:00:01;6.07;;;4.40;;
33266;SDS011;19638;49.080;11.896;2023-07-24T17:04:09;6.22;;;3.83;;
33266;SDS011;19638;49.080;11.896;2023-07-24T17:08:12;5.57;;;4.00;;
33266;SDS011;19638;49.080;11.896;2023-07-24T17:12:19;5.82;;;4.13;;
33266;SDS011;19638;49.080;11.896;2023-07-24T17:16:25;6.82;;;4.75;;
33266;SDS011;19638;49.080;11.896;2023-07-24T17:20:33;6.93;;;4.30;;
33266;SDS011;19638;49.080;11.896;2023-07-24T17:24:36;6.70;;;4.03;;
33266;SDS011;19638;49.080;11.896;2023-07-24T17:28:40;5.85;;;4.20;;
33266;SDS011;19638;49.080;11.896;2023-07-24T17:32:44;8.52;;;4.30;;
33266;SDS011;19638;49.080;11.896;2023-07-24T17:36:55;4.55;;;3.70;;
33266;SDS011;19638;49.080;11.896;2023-07-24T17:40:58;6.07;;;4.13;;
33266;SDS011;19638;49.080;11.896;2023-07-24T17:45:02;6.20;;;3.97;;
33266;SDS011;19638;49.080;11.896;2023-07-24T17:49:07;7.53;;;4.05;;
33266;SDS011;19638;49.080;11.896;2023-07-24T17:53:12;4.47;;;3.83;;
33266;SDS011;19638;49.080;11.896;2023-07-24T17:57:15;4.22;;;3.83;;
33266;SDS011;19638;49.080;11.896;2023-07-24T18:01:18;5.22;;;3.50;;
33266;SDS011;19638;49.080;11.896;2023-07-24T18:05:22;3.80;;;3.28;;
33266;SDS011;19638;49.080;11.896;2023-07-24T18:09:30;6.07;;;3.33;;
33266;SDS011;19638;49.080;11.896;2023-07-24T18:13:33;4.68;;;3.42;;
33266;SDS011;19638;49.080;11.896;2023-07-24T18:17:37;5.57;;;3.63;;
33266;SDS011;19638;49.080;11.896;2023-07-24T18:21:44;4.70;;;3.45;;
33266;SDS011;19638;49.080;11.896;2023-07-24T18:25:52;4.57;;;3.20;;
33266;SDS011;19638;49.080;11.896;2023-07-24T18:30:00;4.72;;;3.50;;
33266;SDS011;19638;49.080;11.896;2023-07-24T18:34:07;4.68;;;3.35;;
33266;SDS011;19638;49.080;11.896;2023-07-24T18:38:11;4.10;;;3.30;;
33266;SDS011;19638;49.080;11.896;2023-07-24T18:42:16;3.78;;;3.10;;
33266;SDS011;19638;49.080;11.896;2023-07-24T18:46:19;3.58;;;3.17;;
33266;SDS011;19638;49.080;11.896;2023-07-24T18:50:22;5.05;;;3.60;;
33266;SDS011;19638;49.080;11.896;2023-07-24T18:54:27;4.50;;;3.60;;
33266;SDS011;19638;49.080;11.896;2023-07-24T18:58:31;5.18;;;3.72;;
33266;SDS011;19638;49.080;11.896;2023-07-24T19:02:38;5.53;;;5.03;;
33266;SDS011;19638;49.080;11.896;2023-07-24T19:06:45;5.07;;;3.75;;
33266;SDS011;19638;49.080;11.896;2023-07-24T19:10:49;3.60;;;3.10;;
33266;SDS011;19638;49.080;11.896;2023-07-24T19:14:54;4.93;;;3.65;;
33266;SDS011;19638;49.080;11.896;2023-07-24T19:19:02;5.18;;;3.53;;
33266;SDS011;19638;49.080;11.896;2023-07-24T19:23:08;5.82;;;3.80;;
33266;SDS011;19638;49.080;11.896;2023-07-24T19:27:11;4.35;;;3.38;;
33266;SDS011;19638;49.080;11.896;2023-07-24T19:31:16;4.38;;;3.08;;
33266;SDS011;19638;49.080;11.896;2023-07-24T19:35:20;4.30;;;3.47;;
33266;SDS011;19638;49.080;11.896;2023-07-24T19:39:24;4.43;;;3.20;;
33266;SDS011;19638;49.080;11.896;2023-07-24T19:43:30;8.05;;;3.80;;
33266;SDS011;19638;49.080;11.896;2023-07-24T19:47:37;4.70;;;3.28;;
33266;SDS011;19638;49.080;11.896;2023-07-24T19:51:42;4.90;;;3.65;;
33266;SDS011;19638;49.080;11.896;2023-07-24T19:55:46;4.63;;;3.72;;
33266;SDS011;19638;49.080;11.896;2023-07-24T19:59:49;9.32;;;3.97;;
33266;SDS011;19638;49.080;11.896;2023-07-24T20:03:54;5.25;;;3.50;;
33266;SDS011;19638;49.080;11.896;2023-07-24T20:07:57;4.93;;;3.50;;
33266;SDS011;19638;49.080;11.896;2023-07-24T20:12:00;5.10;;;3.55;;
33266;SDS011;19638;49.080;11.896;2023-07-24T20:16:04;4.35;;;3.60;;
33266;SDS011;19638;49.080;11.896;2023-07-24T20:20:09;3.90;;;3.35;;
33266;SDS011;19638;49.080;11.896;2023-07-24T20:24:13;7.07;;;3.63;;
33266;SDS011;19638;49.080;11.896;2023-07-24T20:28:19;4.93;;;3.50;;
33266;SDS011;19638;49.080;11.896;2023-07-24T20:32:23;5.55;;;3.97;;
33266;SDS011;19638;49.080;11.896;2023-07-24T20:36:29;7.65;;;4.07;;
33266;SDS011;19638;49.080;11.896;2023-07-24T20:40:32;6.85;;;3.88;;
33266;SDS011;19638;49.080;11.896;2023-07-24T20:44:36;5.57;;;3.95;;
33266;SDS011;19638;49.080;11.896;2023-07-24T20:48:52;9.43;;;4.65;;
33266;SDS011;19638;49.080;11.896;2023-07-24T20:52:56;6.18;;;4.20;;
33266;SDS011;19638;49.080;11.896;2023-07-24T20:56:59;6.00;;;4.30;;
33266;SDS011;19638;49.080;11.896;2023-07-24T21:01:03;5.90;;;4.35;;
33266;SDS011;19638;49.080;11.896;2023-07-24T21:05:06;8.77;;;4.95;;
33266;SDS011;19638;49.080;11.896;2023-07-24T21:09:11;5.70;;;4.07;;
33266;SDS011;19638;49.080;11.896;2023-07-24T21:13:14;7.20;;;3.97;;
33266;SDS011;19638;49.080;11.896;2023-07-24T21:17:22;4.55;;;3.90;;
33266;SDS011;19638;49.080;11.896;2023-07-24T21:21:25;8.32;;;4.05;;
33266;SDS011;19638;49.080;11.896;2023-07-24T21:25:32;8.35;;;4.80;;
33266;SDS011;19638;49.080;11.896;2023-07-24T21:29:36;7.68;;;4.35;;
33266;SDS011;19638;49.080;11.896;2023-07-24T21:33:41;5.78;;;4.00;;
33266;SDS011;19638;49.080;11.896;2023-07-24T21:37:45;6.68;;;3.80;;
33266;SDS011;19638;49.080;11.896;2023-07-24T21:41:50;4.40;;;3.80;;
33266;SDS011;19638;49.080;11.896;2023-07-24T21:45:53;6.88;;;3.97;;
33266;SDS011;19638;49.080;11.896;2023-07-24T21:49:56;7.15;;;3.80;;
33266;SDS011;19638;49.080;11.896;2023-07-24T21:54:08;6.07;;;4.07;;
33266;SDS011;19638;49.080;11.896;2023-07-24T21:58:14;4.05;;;3.65;;
33266;SDS011;19638;49.080;11.896;2023-07-24T22:02:18;6.55;;;3.90;;
33266;SDS011;19638;49.080;11.896;2023-07-24T22:06:21;6.75;;;4.05;;
33266;SDS011;19638;49.080;11.896;2023-07-24T22:10:24;5.68;;;3.72;;
33266;SDS011;19638;49.080;11.896;2023-07-24T22:14:30;5.32;;;4.15;;
33266;SDS011;19638;49.080;11.896;2023-07-24T22:18:34;5.38;;;3.88;;
33266;SDS011;19638;49.080;11.896;2023-07-24T22:22:39;4.40;;;3.85;;
33266;SDS011;19638;49.080;11.896;2023-07-24T22:26:43;3.92;;;3.53;;
33266;SDS011;19638;49.080;11.896;2023-07-24T22:30:48;7.05;;;4.00;;
33266;SDS011;19638;49.080;11.896;2023-07-24T22:34:51;6.20;;;3.95;;
33266;SDS011;19638;49.080;11.896;2023-07-24T22:38:58;7.03;;;3.90;;
33266;SDS011;19638;49.080;11.896;2023-07-24T22:43:03;6.63;;;4.18;;
33266;SDS011;19638;49.080;11.896;2023-07-24T22:47:08;7.82;;;4.15;;
33266;SDS011;19638;49.080;11.896;2023-07-24T22:51:11;5.72;;;3.88;;
33266;SDS011;19638;49.080;11.896;2023-07-24T22:55:14;5.53;;;3.63;;
33266;SDS011;19638;49.080;11.896;2023-07-24T22:59:21;7.88;;;4.07;;
33266;SDS011;19638;49.080;11.896;2023-07-24T23:03:28;5.82;;;3.63;;
33266;SDS011;19638;49.080;11.896;2023-07-24T23:07:31;6.07;;;4.32;;
33266;SDS011;19638;49.080;11.896;2023-07-24T23:11:37;8.25;;;3.75;;
33266;SDS011;19638;49.080;11.896;2023-07-24T23:15:43;10.95;;;3.88;;
33266;SDS011;19638;49.080;11.896;2023-07-24T23:19:50;6.78;;;4.03;;
33266;SDS011;19638;49.080;11.896;2023-07-24T23:23:54;4.72;;;3.70;;
33266;SDS011;19638;49.080;11.896;2023-07-24T23:27:57;4.60;;;3.78;;
33266;SDS011;19638;49.080;11.896;2023-07-24T23:32:03;5.00;;;3.88;;
33266;SDS011;19638;49.080;11.896;2023-07-24T23:36:09;6.45;;;3.88;;
33266;SDS011;19638;49.080;11.896;2023-07-24T23:40:15;8.13;;;4.28;;
33266;SDS011;19638;49.080;11.896;2023-07-24T23:44:21;7.20;;;3.80;;
33266;SDS011;19638;49.080;11.896;2023-07-24T23:48:24;6.55;;;4.50;;
33266;SDS011;19638;49.080;11.896;2023-07-24T23:52:35;6.07;;;3.45;;
33266;SDS011;19638;49.080;11.896;2023-07-24T23:56:38;6.72;;;3.88;;
